Time;durP1;ratioP1;P1;durP2;ratioP2;P2;SDS_P1;SDS_P2;PMS_P1;PMS_P2;Temp;Humidity;BMP_temperature;BMP_pressure;BME280_temperature;BME280_humidity;BME280_pressure;Samples;Min_cycle;Max_cycle;Signal;HPM_P1;HPM_P2
2023/07/29 00:00:46;;;;;;;1.38;0.60;;;17.70;99.90;;;;;;5036828;28;20043;-71
2023/07/29 00:03:12;;;;;;;2.60;0.57;;;17.70;99.90;;;;;;5035123;28;20025;-69
2023/07/29 00:05:38;;;;;;;3.17;0.85;;;17.70;99.90;;;;;;5037698;28;20044;-70
2023/07/29 00:08:03;;;;;;;1.00;0.57;;;17.70;99.90;;;;;;5032810;28;20040;-71
2023/07/29 00:10:32;;;;;;;2.10;0.85;;;17.70;99.90;;;;;;5034446;28;20957;-69
2023/07/29 00:12:57;;;;;;;1.65;0.50;;;17.70;99.90;;;;;;5034472;28;20170;-69
2023/07/29 00:15:23;;;;;;;1.42;0.52;;;17.70;99.90;;;;;;5036231;28;20189;-70
2023/07/29 00:17:48;;;;;;;1.52;0.40;;;17.70;99.90;;;;;;5036899;28;20775;-69
2023/07/29 00:20:15;;;;;;;0.88;0.32;;;17.60;99.90;;;;;;5033265;28;20041;-69
2023/07/29 00:22:40;;;;;;;1.55;0.60;;;17.60;99.90;;;;;;5040042;28;20254;-69
2023/07/29 00:25:07;;;;;;;11.52;0.70;;;17.50;99.90;;;;;;5037194;28;20125;-68
2023/07/29 00:27:32;;;;;;;2.33;0.80;;;17.60;99.90;;;;;;5038927;28;20065;-70
2023/07/29 00:29:58;;;;;;;3.10;0.93;;;17.50;99.90;;;;;;5037298;28;20057;-70
2023/07/29 00:32:23;;;;;;;1.77;0.80;;;17.50;99.90;;;;;;5037790;28;20044;-71
2023/07/29 00:34:49;;;;;;;1.83;0.50;;;17.50;99.90;;;;;;5037351;28;20478;-70
2023/07/29 00:37:14;;;;;;;4.80;1.00;;;17.60;99.90;;;;;;5039823;28;20025;-69
2023/07/29 00:39:40;;;;;;;1.63;0.57;;;17.60;99.90;;;;;;5038138;28;20037;-69
2023/07/29 00:42:06;;;;;;;1.40;0.73;;;17.60;99.90;;;;;;5039293;28;20032;-71
2023/07/29 00:44:32;;;;;;;5.15;0.95;;;17.60;99.90;;;;;;5042027;28;20502;-69
2023/07/29 00:47:00;;;;;;;2.38;1.08;;;17.60;99.90;;;;;;5041029;28;20080;-71
2023/07/29 00:49:26;;;;;;;2.67;0.63;;;17.60;99.90;;;;;;5038705;28;20060;-69
2023/07/29 00:51:51;;;;;;;4.90;1.13;;;17.60;99.90;;;;;;5039491;28;20676;-70
2023/07/29 00:54:17;;;;;;;2.67;0.80;;;17.50;99.90;;;;;;5034717;28;20137;-69
2023/07/29 00:56:43;;;;;;;2.67;0.80;;;17.50;99.90;;;;;;5035973;28;20091;-69
2023/07/29 00:59:08;;;;;;;2.88;1.13;;;17.50;99.90;;;;;;5037706;28;20091;-71
2023/07/29 01:01:35;;;;;;;2.05;1.00;;;17.40;99.90;;;;;;5039760;28;20117;-70
2023/07/29 01:04:00;;;;;;;6.45;1.08;;;17.30;99.90;;;;;;5037581;28;20056;-70
2023/07/29 01:06:48;;;;;;;2.67;1.20;;;17.30;99.90;;;;;;5036911;28;20247;-70
2023/07/29 01:09:25;;;;;;;3.33;0.98;;;17.30;99.90;;;;;;5038600;28;20111;-71
2023/07/29 01:12:02;;;;;;;5.88;1.60;;;17.30;99.90;;;;;;5037503;28;20028;-71
2023/07/29 01:15:09;;;;;;;5.18;1.30;;;17.20;99.90;;;;;;5037097;28;20037;-71
2023/07/29 01:17:57;;;;;;;1.83;0.80;;;17.20;99.90;;;;;;5023707;28;20029;-71
2023/07/29 01:20:25;;;;;;;4.28;1.00;;;17.20;99.90;;;;;;5038422;28;20051;-70
2023/07/29 01:22:50;;;;;;;2.35;0.80;;;17.20;99.90;;;;;;5040794;28;20135;-70
2023/07/29 01:25:16;;;;;;;3.83;1.25;;;17.20;99.90;;;;;;5035655;28;20167;-70
2023/07/29 01:27:45;;;;;;;8.57;1.33;;;17.20;99.90;;;;;;5038072;28;20079;-72
2023/07/29 01:30:11;;;;;;;5.63;1.40;;;17.20;99.90;;;;;;5034470;28;20450;-71
2023/07/29 01:32:49;;;;;;;3.45;0.98;;;17.10;99.90;;;;;;5037874;28;20033;-70
2023/07/29 01:35:26;;;;;;;4.60;1.27;;;17.10;99.90;;;;;;5037395;28;20037;-71
2023/07/29 01:37:56;;;;;;;4.85;1.27;;;17.10;99.90;;;;;;5038309;28;20032;-71
2023/07/29 01:40:27;;;;;;;4.55;1.33;;;17.10;99.90;;;;;;5036051;28;20037;-70
2023/07/29 01:42:53;;;;;;;3.13;1.15;;;17.10;99.90;;;;;;5036772;28;20400;-69
2023/07/29 01:45:19;;;;;;;6.80;1.73;;;17.10;99.90;;;;;;5036652;28;21229;-70
2023/07/29 01:47:44;;;;;;;4.95;1.33;;;17.10;99.90;;;;;;5034725;28;20049;-70
2023/07/29 01:50:10;;;;;;;4.32;1.30;;;17.10;99.90;;;;;;5038985;28;20044;-70
2023/07/29 01:52:36;;;;;;;3.95;1.10;;;17.10;99.90;;;;;;5036009;28;20061;-70
2023/07/29 01:55:02;;;;;;;5.13;1.73;;;17.10;99.90;;;;;;5037066;28;20040;-69
2023/07/29 01:57:28;;;;;;;3.58;1.40;;;17.00;99.90;;;;;;5036158;28;20052;-70
2023/07/29 01:59:53;;;;;;;6.47;1.45;;;17.10;99.90;;;;;;5034289;28;20107;-71
2023/07/29 02:02:19;;;;;;;2.90;1.27;;;17.10;99.90;;;;;;5036205;28;20037;-70
2023/07/29 02:04:45;;;;;;;5.20;2.00;;;17.10;99.90;;;;;;5035586;28;20091;-70
2023/07/29 02:07:10;;;;;;;3.95;1.60;;;17.10;99.90;;;;;;5033870;28;20083;-69
2023/07/29 02:09:36;;;;;;;4.65;1.73;;;17.10;99.90;;;;;;5034947;28;20120;-69
2023/07/29 02:12:02;;;;;;;10.60;1.70;;;17.10;99.90;;;;;;5038240;28;20032;-70
2023/07/29 02:14:28;;;;;;;3.78;1.48;;;17.00;99.90;;;;;;5036159;28;20036;-69
2023/07/29 02:16:53;;;;;;;4.53;1.52;;;17.00;99.90;;;;;;5035717;28;20119;-69
2023/07/29 02:19:19;;;;;;;3.83;1.77;;;17.00;99.90;;;;;;5039074;28;20068;-69
2023/07/29 02:21:44;;;;;;;3.83;1.50;;;17.00;99.90;;;;;;5034910;28;20069;-68
2023/07/29 02:24:10;;;;;;;5.15;1.10;;;17.00;99.90;;;;;;5036425;28;20171;-70
2023/07/29 02:26:36;;;;;;;3.22;1.15;;;17.00;99.90;;;;;;5041963;28;20071;-70
2023/07/29 02:29:01;;;;;;;7.90;1.70;;;16.90;99.90;;;;;;5034479;28;20043;-69
2023/07/29 02:31:27;;;;;;;5.25;1.40;;;16.90;99.90;;;;;;5037497;28;20900;-69
2023/07/29 02:33:53;;;;;;;3.95;1.23;;;16.90;99.90;;;;;;5036565;28;20611;-69
2023/07/29 02:36:18;;;;;;;4.55;1.48;;;16.90;99.90;;;;;;5035928;28;20060;-70
2023/07/29 02:38:44;;;;;;;5.28;1.60;;;16.90;99.90;;;;;;5036531;28;20110;-69
2023/07/29 02:41:12;;;;;;;5.65;2.13;;;16.90;99.90;;;;;;5038586;28;20056;-71
2023/07/29 02:43:37;;;;;;;4.30;1.10;;;16.90;99.90;;;;;;5034645;28;20060;-71
2023/07/29 02:46:03;;;;;;;5.50;1.50;;;16.80;99.90;;;;;;5028229;28;20037;-70
2023/07/29 02:48:29;;;;;;;3.15;1.48;;;16.80;99.90;;;;;;5036780;28;20482;-71
2023/07/29 02:50:55;;;;;;;3.17;1.05;;;16.80;99.90;;;;;;5038541;28;20120;-71
2023/07/29 02:53:22;;;;;;;4.25;1.42;;;16.80;99.90;;;;;;5035121;28;20397;-71
2023/07/29 02:55:48;;;;;;;2.35;1.23;;;16.80;99.90;;;;;;5038084;28;20056;-71
2023/07/29 02:58:14;;;;;;;4.32;1.10;;;16.80;99.90;;;;;;5035092;28;20421;-71
2023/07/29 03:00:41;;;;;;;2.92;1.00;;;16.80;99.90;;;;;;5035686;28;20129;-71
2023/07/29 03:03:08;;;;;;;4.10;0.95;;;16.80;99.90;;;;;;5031507;28;20022;-70
2023/07/29 03:05:33;;;;;;;2.03;0.95;;;16.80;99.90;;;;;;5037850;28;20112;-70
2023/07/29 03:07:59;;;;;;;4.57;1.52;;;16.80;99.90;;;;;;5034733;28;20112;-70
2023/07/29 03:10:25;;;;;;;10.07;1.20;;;16.70;99.90;;;;;;5037358;28;20029;-71
2023/07/29 03:12:50;;;;;;;3.78;0.93;;;16.70;99.90;;;;;;5037794;28;20405;-71
2023/07/29 03:15:16;;;;;;;1.75;0.98;;;16.70;99.90;;;;;;5036120;28;20041;-71
2023/07/29 03:17:42;;;;;;;3.58;0.80;;;16.70;99.90;;;;;;5035604;28;20060;-69
2023/07/29 03:20:08;;;;;;;3.72;0.90;;;16.70;99.90;;;;;;5033922;28;20544;-70
2023/07/29 03:22:33;;;;;;;1.65;0.75;;;16.70;99.90;;;;;;5038069;28;20413;-71
2023/07/29 03:24:59;;;;;;;2.55;0.90;;;16.60;99.90;;;;;;5034950;28;20049;-70
2023/07/29 03:27:24;;;;;;;2.92;0.82;;;16.60;99.90;;;;;;5033862;28;20037;-71
2023/07/29 03:29:50;;;;;;;3.25;0.93;;;16.60;99.90;;;;;;5036746;28;20037;-68
2023/07/29 03:32:16;;;;;;;4.70;1.15;;;16.60;99.90;;;;;;5035361;28;20438;-69
2023/07/29 03:34:41;;;;;;;1.33;0.55;;;16.60;99.90;;;;;;5036806;28;20115;-71
2023/07/29 03:37:07;;;;;;;4.10;0.90;;;16.60;99.90;;;;;;5028791;28;20360;-70
2023/07/29 03:39:32;;;;;;;3.55;0.98;;;16.60;99.90;;;;;;5036359;28;20428;-71
2023/07/29 03:41:58;;;;;;;1.88;0.77;;;16.60;99.90;;;;;;5033302;28;20163;-70
2023/07/29 03:44:24;;;;;;;2.50;1.02;;;16.60;99.90;;;;;;5034523;28;20041;-69
2023/07/29 03:46:49;;;;;;;4.28;1.85;;;16.60;99.90;;;;;;5035405;28;20049;-70
2023/07/29 03:49:15;;;;;;;2.08;1.08;;;16.60;99.90;;;;;;5033438;28;20046;-69
2023/07/29 03:51:40;;;;;;;4.88;1.20;;;16.60;99.90;;;;;;5038323;28;20741;-72
2023/07/29 03:54:06;;;;;;;2.10;0.90;;;16.60;99.90;;;;;;5030308;28;20457;-72
2023/07/29 03:56:32;;;;;;;3.58;0.80;;;16.60;99.90;;;;;;5047308;28;20037;-72
2023/07/29 03:59:06;;;;;;;5.05;0.85;;;16.70;99.90;;;;;;5041798;28;20033;-70
2023/07/29 04:01:32;;;;;;;2.92;1.15;;;16.70;99.90;;;;;;5038880;28;20164;-71
2023/07/29 04:03:59;;;;;;;2.70;0.90;;;16.60;99.90;;;;;;5037988;28;20465;-68
2023/07/29 04:06:25;;;;;;;4.97;1.73;;;16.60;99.90;;;;;;5044867;28;20029;-70
2023/07/29 04:08:50;;;;;;;2.63;0.80;;;16.60;99.90;;;;;;5041541;28;20604;-69
2023/07/29 04:11:16;;;;;;;2.63;0.90;;;16.60;99.90;;;;;;5037620;28;20029;-69
2023/07/29 04:13:42;;;;;;;4.35;1.48;;;16.60;99.90;;;;;;5043953;28;20025;-70
2023/07/29 04:16:07;;;;;;;1.80;0.80;;;16.60;99.90;;;;;;5038118;28;20713;-69
2023/07/29 04:18:33;;;;;;;2.08;0.80;;;16.60;99.90;;;;;;5040162;28;20390;-69
2023/07/29 04:20:58;;;;;;;2.50;1.00;;;16.60;99.90;;;;;;5048459;28;20033;-71
2023/07/29 04:23:24;;;;;;;2.50;0.80;;;16.60;99.90;;;;;;5045965;28;20072;-71
2023/07/29 04:25:49;;;;;;;2.88;0.80;;;16.60;99.90;;;;;;5041320;28;20046;-70
2023/07/29 04:28:15;;;;;;;2.55;0.90;;;16.60;99.90;;;;;;5040999;28;20136;-69
2023/07/29 04:30:41;;;;;;;2.90;1.00;;;16.50;99.90;;;;;;5037923;28;20045;-69
2023/07/29 04:33:07;;;;;;;2.55;0.88;;;16.50;99.90;;;;;;5035146;28;20034;-71
2023/07/29 04:35:32;;;;;;;2.75;1.25;;;16.60;99.90;;;;;;5040876;28;20041;-70
2023/07/29 04:37:58;;;;;;;1.55;0.82;;;16.60;99.90;;;;;;5040100;28;20029;-70
2023/07/29 04:40:24;;;;;;;4.95;1.48;;;16.50;99.90;;;;;;5039335;28;20057;-70
2023/07/29 04:42:51;;;;;;;3.67;1.00;;;16.50;99.90;;;;;;5040080;28;20038;-72
2023/07/29 04:45:16;;;;;;;2.63;1.00;;;16.50;99.90;;;;;;5035230;28;20107;-72
2023/07/29 04:47:42;;;;;;;1.77;1.00;;;16.50;99.90;;;;;;5039211;28;20049;-71
2023/07/29 04:50:08;;;;;;;2.53;1.08;;;16.50;99.90;;;;;;5039862;28;20140;-71
2023/07/29 04:52:33;;;;;;;1.98;0.98;;;16.60;99.90;;;;;;5038572;28;20075;-71
2023/07/29 04:54:59;;;;;;;3.22;1.23;;;16.60;99.90;;;;;;5037470;28;20049;-69
2023/07/29 04:57:25;;;;;;;3.25;1.13;;;16.60;99.90;;;;;;5038422;28;20033;-69
2023/07/29 04:59:50;;;;;;;2.45;0.95;;;16.70;99.90;;;;;;5042107;28;20494;-70
2023/07/29 05:02:16;;;;;;;3.70;1.58;;;16.60;99.90;;;;;;5037218;28;20116;-71
2023/07/29 05:04:41;;;;;;;2.03;0.90;;;16.70;99.90;;;;;;5036940;28;20044;-71
2023/07/29 05:07:07;;;;;;;2.22;0.90;;;16.70;99.90;;;;;;5035450;28;20029;-70
2023/07/29 05:09:33;;;;;;;3.67;1.00;;;16.80;99.90;;;;;;5037775;28;20099;-71
2023/07/29 05:11:58;;;;;;;2.58;1.13;;;16.80;99.90;;;;;;5036763;28;20059;-71
2023/07/29 05:14:24;;;;;;;2.05;1.20;;;16.90;99.90;;;;;;5039684;28;20061;-69
2023/07/29 05:16:50;;;;;;;2.42;0.93;;;16.90;99.90;;;;;;5039037;28;20037;-68
2023/07/29 05:19:15;;;;;;;2.95;1.50;;;16.90;99.90;;;;;;5042552;28;20523;-72
2023/07/29 05:21:41;;;;;;;4.50;1.13;;;16.90;99.90;;;;;;5039472;28;20469;-70
2023/07/29 05:24:06;;;;;;;4.55;1.30;;;16.90;99.90;;;;;;5037163;28;20083;-69
2023/07/29 05:26:32;;;;;;;2.30;1.10;;;17.00;99.90;;;;;;5038472;28;20396;-68
2023/07/29 05:28:58;;;;;;;5.60;1.50;;;17.00;99.90;;;;;;5040094;28;20529;-68
2023/07/29 05:31:23;;;;;;;3.58;1.70;;;17.00;99.90;;;;;;5035532;28;20033;-71
2023/07/29 05:33:49;;;;;;;5.75;1.58;;;17.10;99.90;;;;;;5039932;28;20116;-71
2023/07/29 05:36:15;;;;;;;5.10;1.20;;;17.10;99.90;;;;;;5036545;28;20517;-70
2023/07/29 05:38:41;;;;;;;4.13;1.50;;;17.20;99.90;;;;;;5035414;28;20029;-69
2023/07/29 05:41:06;;;;;;;3.53;1.42;;;17.20;99.90;;;;;;5034016;28;20048;-70
2023/07/29 05:43:32;;;;;;;3.65;1.60;;;17.20;99.90;;;;;;5041971;28;20029;-69
2023/07/29 05:45:57;;;;;;;5.07;1.48;;;17.20;99.90;;;;;;5039590;28;20036;-70
2023/07/29 05:48:23;;;;;;;4.00;1.55;;;17.30;99.90;;;;;;5033828;28;20045;-70
2023/07/29 05:50:49;;;;;;;4.53;1.52;;;17.50;99.90;;;;;;5039985;28;20057;-69
2023/07/29 05:53:14;;;;;;;3.53;1.50;;;17.60;99.90;;;;;;5038089;28;20041;-71
2023/07/29 05:55:40;;;;;;;6.10;1.77;;;17.70;99.90;;;;;;5038601;28;20044;-69
2023/07/29 05:58:06;;;;;;;4.13;1.35;;;17.90;99.90;;;;;;5033854;28;20060;-69
2023/07/29 06:00:31;;;;;;;4.00;1.35;;;18.00;99.90;;;;;;5039440;28;20068;-69
2023/07/29 06:02:57;;;;;;;4.00;1.30;;;18.20;99.90;;;;;;5039331;28;20047;-69
2023/07/29 06:05:23;;;;;;;5.30;1.40;;;18.40;99.90;;;;;;5033371;28;20040;-70
2023/07/29 06:07:48;;;;;;;6.03;1.40;;;18.50;99.90;;;;;;5039301;28;20128;-69
2023/07/29 06:10:18;;;;;;;4.38;1.73;;;18.50;99.90;;;;;;5035559;28;20026;-70
2023/07/29 06:12:45;;;;;;;3.55;1.67;;;18.60;99.90;;;;;;5038638;28;20048;-70
2023/07/29 06:15:10;;;;;;;2.30;1.17;;;18.60;99.90;;;;;;5036362;28;20477;-69
2023/07/29 06:17:36;;;;;;;5.28;1.67;;;18.60;99.90;;;;;;5035177;28;20044;-69
2023/07/29 06:20:03;;;;;;;2.67;1.50;;;18.60;99.90;;;;;;5031370;28;20127;-70
2023/07/29 06:22:28;;;;;;;4.40;1.88;;;18.60;99.90;;;;;;5036926;28;20139;-70
2023/07/29 06:24:54;;;;;;;3.78;1.50;;;18.60;99.90;;;;;;5038073;28;20502;-71
2023/07/29 06:27:19;;;;;;;3.92;1.73;;;18.70;99.90;;;;;;5036157;28;20033;-69
2023/07/29 06:29:45;;;;;;;3.42;1.30;;;18.80;99.90;;;;;;5038439;28;20039;-69
2023/07/29 06:32:11;;;;;;;3.30;1.85;;;19.00;99.90;;;;;;5036771;28;20044;-71
2023/07/29 06:34:36;;;;;;;6.88;2.13;;;19.00;99.90;;;;;;5034758;28;20025;-70
2023/07/29 06:37:02;;;;;;;6.38;1.65;;;19.10;99.90;;;;;;5030860;28;20037;-70
2023/07/29 06:39:27;;;;;;;5.32;1.40;;;19.20;99.90;;;;;;5034066;28;20032;-71
2023/07/29 06:41:53;;;;;;;5.18;1.40;;;19.20;99.90;;;;;;5032966;28;20145;-70
2023/07/29 06:44:19;;;;;;;4.97;2.13;;;19.30;99.90;;;;;;5038760;28;20027;-71
2023/07/29 06:46:44;;;;;;;4.07;1.90;;;19.40;99.90;;;;;;5036148;28;20047;-70
2023/07/29 06:49:10;;;;;;;5.68;1.30;;;19.50;99.90;;;;;;5035477;28;20042;-71
2023/07/29 06:51:35;;;;;;;4.35;1.25;;;19.50;99.90;;;;;;5034577;28;20060;-69
2023/07/29 06:54:04;;;;;;;7.78;1.52;;;19.40;99.90;;;;;;5033892;28;20017;-71
2023/07/29 06:56:30;;;;;;;3.88;1.50;;;19.40;99.90;;;;;;5035196;28;20041;-70
2023/07/29 06:58:55;;;;;;;2.38;1.13;;;19.30;99.90;;;;;;5035512;28;20052;-71
2023/07/29 07:01:21;;;;;;;3.17;1.55;;;19.20;99.90;;;;;;5033553;28;20049;-72
2023/07/29 07:03:46;;;;;;;2.75;1.10;;;19.10;99.90;;;;;;5037801;28;20025;-69
2023/07/29 07:06:12;;;;;;;2.35;1.45;;;19.10;99.90;;;;;;5034601;28;20064;-69
2023/07/29 07:08:37;;;;;;;4.53;1.00;;;19.00;99.90;;;;;;5034619;28;20091;-70
2023/07/29 07:11:03;;;;;;;2.50;1.27;;;18.90;99.90;;;;;;5035840;28;20041;-71
2023/07/29 07:13:28;;;;;;;3.53;1.40;;;19.10;99.90;;;;;;5037380;28;20743;-71
2023/07/29 07:15:55;;;;;;;4.10;0.90;;;19.20;99.90;;;;;;5037559;28;20049;-70
2023/07/29 07:18:23;;;;;;;3.70;1.23;;;19.40;99.90;;;;;;5036273;28;20041;-69
2023/07/29 07:20:50;;;;;;;3.50;1.40;;;19.50;99.90;;;;;;5032908;28;20033;-70
2023/07/29 07:23:16;;;;;;;3.65;1.13;;;19.60;99.90;;;;;;5034547;28;20144;-70
2023/07/29 07:25:42;;;;;;;3.17;1.27;;;19.90;99.90;;;;;;5038413;28;20685;-69
2023/07/29 07:28:08;;;;;;;3.75;1.50;;;20.30;99.90;;;;;;5035196;28;20044;-70
2023/07/29 07:30:34;;;;;;;3.28;1.40;;;20.70;99.90;;;;;;5033705;28;20112;-69
2023/07/29 07:33:00;;;;;;;1.98;1.17;;;20.90;99.90;;;;;;5038739;28;20128;-69
2023/07/29 07:35:26;;;;;;;3.72;1.35;;;21.00;99.90;;;;;;5035264;28;20081;-70
2023/07/29 07:37:51;;;;;;;3.50;1.40;;;20.90;99.90;;;;;;5032236;28;20042;-70
2023/07/29 07:40:17;;;;;;;4.80;1.17;;;21.20;99.90;;;;;;5037337;28;20044;-70
2023/07/29 07:42:42;;;;;;;1.98;1.00;;;21.80;99.90;;;;;;5033162;28;20068;-70
2023/07/29 07:45:08;;;;;;;4.82;1.42;;;22.20;99.90;;;;;;5036417;28;20033;-70
2023/07/29 07:47:34;;;;;;;3.00;1.23;;;22.10;99.90;;;;;;5035372;28;20040;-71
2023/07/29 07:49:59;;;;;;;4.95;1.17;;;21.90;99.90;;;;;;5534599;22;20098;-72
2023/07/29 07:52:25;;;;;;;1.33;0.75;;;21.50;99.90;;;;;;5023022;28;20124;-71
2023/07/29 07:54:54;;;;;;;3.08;1.23;;;21.30;99.90;;;;;;5024321;28;20033;-70
2023/07/29 07:57:22;;;;;;;8.85;1.50;;;21.40;99.90;;;;;;5023842;28;20030;-72
2023/07/29 07:59:48;;;;;;;4.57;1.13;;;21.40;99.90;;;;;;5037097;28;20437;-71
2023/07/29 08:02:14;;;;;;;1.90;1.00;;;21.40;99.90;;;;;;5045549;28;20029;-70
2023/07/29 08:04:40;;;;;;;1.80;0.75;;;21.20;99.90;;;;;;5044976;28;20652;-70
2023/07/29 08:07:05;;;;;;;2.40;0.75;;;20.90;99.90;;;;;;5045686;28;20029;-70
2023/07/29 08:09:31;;;;;;;2.92;0.85;;;20.70;99.90;;;;;;5046114;28;20037;-71
2023/07/29 08:11:56;;;;;;;1.75;0.90;;;20.60;99.90;;;;;;5046456;28;20029;-71
2023/07/29 08:14:22;;;;;;;3.22;0.98;;;20.50;99.90;;;;;;5043768;28;20033;-70
2023/07/29 08:16:48;;;;;;;1.10;0.70;;;20.40;99.90;;;;;;5046158;28;20542;-70
2023/07/29 08:19:13;;;;;;;1.15;0.60;;;20.30;99.90;;;;;;5045024;28;20033;-70
2023/07/29 08:21:39;;;;;;;1.60;0.60;;;20.20;99.90;;;;;;5046378;28;20033;-70
2023/07/29 08:24:06;;;;;;;2.42;0.95;;;20.10;99.90;;;;;;5043480;28;20048;-71
2023/07/29 08:26:32;;;;;;;4.43;1.20;;;20.00;99.90;;;;;;5044470;28;20041;-70
2023/07/29 08:28:57;;;;;;;3.33;0.80;;;19.90;99.90;;;;;;5046044;28;20037;-71
2023/07/29 08:31:23;;;;;;;2.15;0.75;;;19.80;99.90;;;;;;5044935;28;20467;-70
2023/07/29 08:33:48;;;;;;;2.95;0.80;;;19.70;99.90;;;;;;5046091;28;20429;-70
2023/07/29 08:36:14;;;;;;;3.50;0.85;;;19.60;99.90;;;;;;5044943;28;20406;-71
2023/07/29 08:38:40;;;;;;;2.25;0.60;;;19.50;99.90;;;;;;5045857;28;20049;-70
2023/07/29 08:41:47;;;;;;;2.22;0.90;;;19.50;99.90;;;;;;5045124;28;20044;-70
2023/07/29 08:44:22;;;;;;;3.10;1.50;;;19.40;99.90;;;;;;5040570;28;20033;-70
2023/07/29 08:46:47;;;;;;;3.05;1.25;;;19.70;99.90;;;;;;5045857;28;20144;-70
2023/07/29 08:49:14;;;;;;;2.22;1.08;;;20.00;99.90;;;;;;5048509;28;20141;-70
2023/07/29 08:51:42;;;;;;;3.00;1.48;;;20.40;99.90;;;;;;5048456;28;20052;-70
2023/07/29 08:54:10;;;;;;;3.45;0.93;;;20.60;99.90;;;;;;5048993;28;20517;-71
2023/07/29 08:56:36;;;;;;;2.42;0.93;;;20.60;99.90;;;;;;5051033;28;20787;-70
2023/07/29 08:59:04;;;;;;;2.75;0.95;;;20.60;99.90;;;;;;5051158;28;20174;-73
2023/07/29 09:01:30;;;;;;;2.55;1.30;;;20.60;99.90;;;;;;5056532;28;20071;-71
2023/07/29 09:03:56;;;;;;;2.08;0.93;;;20.70;99.90;;;;;;5059959;28;20048;-71
2023/07/29 09:06:23;;;;;;;2.70;0.80;;;20.70;99.90;;;;;;5049263;28;20053;-73
2023/07/29 09:08:50;;;;;;;1.13;0.45;;;20.70;99.90;;;;;;5053593;28;20033;-72
2023/07/29 09:11:17;;;;;;;1.30;0.70;;;20.80;99.90;;;;;;5042330;28;20041;-72
2023/07/29 09:13:43;;;;;;;2.47;0.68;;;20.90;99.90;;;;;;5046800;28;20064;-71
2023/07/29 09:16:09;;;;;;;1.48;0.63;;;20.90;99.90;;;;;;5038825;28;20068;-71
2023/07/29 09:18:35;;;;;;;4.05;0.68;;;21.00;99.90;;;;;;5046224;28;20061;-71
2023/07/29 09:21:01;;;;;;;2.30;0.93;;;20.90;99.90;;;;;;5046655;28;20029;-70
2023/07/29 09:23:28;;;;;;;3.05;1.10;;;20.70;99.90;;;;;;5044720;28;20043;-71
2023/07/29 09:26:01;;;;;;;1.60;0.85;;;20.50;99.90;;;;;;5046467;28;20031;-71
2023/07/29 09:28:36;;;;;;;2.20;1.42;;;20.30;99.90;;;;;;5045877;28;20091;-70
2023/07/29 09:31:02;;;;;;;2.45;1.08;;;20.10;99.90;;;;;;5044877;28;20974;-71
2023/07/29 09:33:37;;;;;;;2.30;1.08;;;19.80;99.90;;;;;;5037342;28;20036;-71
2023/07/29 09:36:09;;;;;;;3.83;1.83;;;19.60;99.90;;;;;;5037751;28;20037;-72
2023/07/29 09:38:35;;;;;;;3.75;1.15;;;19.50;99.90;;;;;;5042210;28;20513;-71
2023/07/29 09:41:01;;;;;;;2.10;0.85;;;19.50;99.90;;;;;;5043208;28;20051;-70
2023/07/29 09:43:32;;;;;;;2.03;1.10;;;19.60;99.90;;;;;;5045306;28;20079;-71
2023/07/29 09:46:02;;;;;;;10.48;1.33;;;19.70;99.90;;;;;;5048264;28;20029;-70
2023/07/29 09:48:30;;;;;;;7.10;1.20;;;19.80;99.90;;;;;;5047203;28;20095;-70
2023/07/29 09:50:56;;;;;;;1.20;0.73;;;19.90;99.90;;;;;;5048008;28;20041;-70
2023/07/29 09:53:22;;;;;;;2.05;0.95;;;19.90;99.90;;;;;;5044619;28;20037;-71
2023/07/29 09:55:48;;;;;;;6.40;1.08;;;20.10;99.90;;;;;;5037684;28;20045;-71
2023/07/29 09:58:19;;;;;;;5.03;1.08;;;20.20;99.90;;;;;;5040206;28;20143;-71
2023/07/29 10:00:46;;;;;;;1.63;0.80;;;20.10;99.90;;;;;;5043211;28;20041;-70
2023/07/29 10:03:14;;;;;;;2.67;1.00;;;20.00;99.90;;;;;;5038993;28;20044;-72
2023/07/29 10:05:40;;;;;;;5.22;1.20;;;19.90;99.90;;;;;;5046366;28;20094;-70
2023/07/29 10:08:07;;;;;;;7.10;1.98;;;19.80;99.90;;;;;;5041066;28;20601;-70
2023/07/29 10:10:33;;;;;;;4.55;1.10;;;19.60;99.90;;;;;;5044786;28;20029;-70
2023/07/29 10:12:58;;;;;;;3.50;1.35;;;19.50;99.90;;;;;;5047819;28;20044;-70
2023/07/29 10:15:25;;;;;;;9.13;1.77;;;19.50;99.90;;;;;;5046532;28;20090;-70
2023/07/29 10:17:52;;;;;;;7.00;2.17;;;19.50;99.90;;;;;;5042761;28;20037;-70
2023/07/29 10:20:17;;;;;;;3.15;1.73;;;19.50;99.90;;;;;;5044352;28;20056;-70
2023/07/29 10:22:45;;;;;;;4.57;1.80;;;19.40;99.90;;;;;;5039257;28;20020;-70
2023/07/29 10:25:22;;;;;;;3.80;1.88;;;19.40;99.90;;;;;;5046178;28;20029;-70
2023/07/29 10:28:07;;;;;;;2.95;1.75;;;19.30;99.90;;;;;;5047502;28;20049;-70
2023/07/29 10:30:33;;;;;;;5.70;1.70;;;19.30;99.90;;;;;;5046441;28;20482;-71
2023/07/29 10:33:02;;;;;;;3.45;1.60;;;19.20;99.90;;;;;;5047526;28;20528;-70
2023/07/29 10:35:28;;;;;;;2.10;1.50;;;19.20;99.90;;;;;;5043632;28;20037;-70
2023/07/29 10:37:55;;;;;;;2.05;1.08;;;19.10;99.90;;;;;;5046964;28;20029;-70
2023/07/29 10:40:21;;;;;;;3.00;1.35;;;19.20;99.90;;;;;;5044649;28;20033;-71
2023/07/29 10:43:08;;;;;;;2.40;1.10;;;19.30;99.90;;;;;;5046733;28;20025;-71
2023/07/29 10:45:38;;;;;;;4.28;1.30;;;19.40;99.90;;;;;;5042523;28;20100;-71
2023/07/29 10:48:11;;;;;;;1.85;0.77;;;19.40;99.90;;;;;;5042259;28;20074;-71
2023/07/29 10:50:36;;;;;;;1.05;0.50;;;19.40;99.90;;;;;;5044327;28;20037;-70
2023/07/29 10:53:02;;;;;;;1.55;0.60;;;19.40;99.90;;;;;;5046806;28;20029;-71
2023/07/29 10:55:38;;;;;;;2.20;0.60;;;19.40;99.90;;;;;;5044805;28;20498;-70
2023/07/29 10:58:17;;;;;;;0.77;0.40;;;19.40;99.90;;;;;;5041982;28;20029;-71
2023/07/29 11:00:44;;;;;;;1.63;0.63;;;19.30;99.90;;;;;;5045111;28;20043;-71
2023/07/29 11:03:11;;;;;;;0.63;0.40;;;19.20;99.90;;;;;;5044541;28;20621;-71
2023/07/29 11:05:53;;;;;;;0.75;0.40;;;19.20;99.90;;;;;;5045805;28;20032;-70
2023/07/29 11:08:29;;;;;;;1.00;0.30;;;19.10;99.90;;;;;;5038663;28;20040;-71
2023/07/29 11:11:11;;;;;;;0.50;0.35;;;19.00;99.90;;;;;;5040769;28;20402;-72
2023/07/29 11:13:38;;;;;;;1.63;0.50;;;18.90;99.90;;;;;;5037135;28;20482;-72
2023/07/29 11:16:05;;;;;;;1.67;0.50;;;18.80;99.90;;;;;;5038330;28;20064;-73
2023/07/29 11:18:35;;;;;;;1.15;0.43;;;18.70;99.90;;;;;;5044533;28;20037;-70
2023/07/29 11:21:03;;;;;;;1.15;0.40;;;18.70;99.90;;;;;;5040147;28;20041;-71
2023/07/29 11:23:30;;;;;;;1.25;0.40;;;18.60;99.90;;;;;;5038051;28;20057;-71
2023/07/29 11:25:56;;;;;;;1.13;0.20;;;18.60;99.90;;;;;;5037856;28;20465;-70
2023/07/29 11:28:22;;;;;;;1.98;0.20;;;18.60;99.90;;;;;;5037377;28;20032;-71
2023/07/29 11:30:49;;;;;;;0.47;0.20;;;18.70;99.90;;;;;;5038845;28;20079;-70
2023/07/29 11:33:20;;;;;;;1.23;0.40;;;18.80;99.90;;;;;;5042013;28;20421;-71
2023/07/29 11:35:46;;;;;;;0.68;0.30;;;19.00;99.90;;;;;;5041450;28;20053;-71
2023/07/29 11:38:16;;;;;;;0.80;0.40;;;19.20;99.90;;;;;;5040822;28;20056;-70
2023/07/29 11:40:42;;;;;;;;;;;19.30;99.90;;;;;;5044797;28;20061;-71
2023/07/29 11:43:07;;;;;;;0.88;0.43;;;19.60;99.90;;;;;;5039741;28;20338;-70
2023/07/29 11:45:33;;;;;;;0.68;0.45;;;20.00;99.90;;;;;;5044559;28;20037;-70
2023/07/29 11:48:01;;;;;;;1.38;0.60;;;20.40;99.90;;;;;;5043930;28;20029;-70
2023/07/29 11:50:27;;;;;;;2.22;0.60;;;20.60;99.90;;;;;;5041647;28;20057;-70
2023/07/29 11:52:52;;;;;;;1.80;0.65;;;20.80;99.90;;;;;;5042250;28;20809;-70
2023/07/29 11:55:19;;;;;;;2.28;0.45;;;21.00;99.90;;;;;;5041584;28;20111;-70
2023/07/29 11:57:50;;;;;;;3.05;0.57;;;21.00;99.90;;;;;;5043681;28;20033;-71
2023/07/29 12:00:18;;;;;;;2.42;0.77;;;21.10;99.90;;;;;;5041633;28;20049;-71
2023/07/29 12:02:45;;;;;;;1.38;0.52;;;20.90;99.90;;;;;;5042224;28;20021;-71
2023/07/29 12:05:12;;;;;;;2.90;0.85;;;20.90;99.90;;;;;;5043218;28;20030;-71
2023/07/29 12:07:42;;;;;;;0.75;0.47;;;20.80;99.90;;;;;;5042510;28;20056;-71
2023/07/29 12:10:08;;;;;;;;;;;20.80;99.90;;;;;;5041285;28;20522;-71
2023/07/29 12:12:44;;;;;;;1.15;0.50;;;20.80;99.90;;;;;;5041090;28;19927;-71
2023/07/29 12:15:09;;;;;;;1.00;0.50;;;20.80;99.90;;;;;;5035235;28;20065;-71
2023/07/29 12:17:40;;;;;;;0.38;0.28;;;20.70;99.90;;;;;;5045877;28;20064;-71
2023/07/29 12:20:08;;;;;;;1.10;0.45;;;20.70;99.90;;;;;;5046189;28;20025;-70
2023/07/29 12:22:34;;;;;;;5.07;0.60;;;20.80;99.90;;;;;;5043443;28;20478;-71
2023/07/29 12:25:00;;;;;;;2.17;0.75;;;20.80;99.90;;;;;;5042712;28;20083;-71
2023/07/29 12:27:26;;;;;;;3.92;0.43;;;20.90;99.90;;;;;;5045322;28;20107;-72
2023/07/29 12:29:53;;;;;;;2.35;0.50;;;21.00;99.90;;;;;;5045556;28;20033;-71
2023/07/29 12:32:18;;;;;;;0.93;0.57;;;21.10;99.90;;;;;;5045811;28;20036;-72
2023/07/29 12:34:44;;;;;;;0.88;0.52;;;21.20;99.90;;;;;;5047097;28;20083;-71
2023/07/29 12:37:10;;;;;;;1.60;0.30;;;21.20;99.90;;;;;;5044149;28;20029;-71
2023/07/29 12:39:41;;;;;;;0.55;0.28;;;21.30;99.90;;;;;;5042392;28;20616;-71
2023/07/29 12:42:07;;;;;;;1.65;0.80;;;21.30;99.90;;;;;;5042402;28;20021;-72
2023/07/29 12:44:35;;;;;;;2.47;0.40;;;21.30;99.90;;;;;;5045473;28;20560;-71
2023/07/29 12:47:02;;;;;;;1.23;0.50;;;21.30;99.90;;;;;;5046049;28;20045;-71